sensor_id;sensor_type;location;lat;lon;timestamp;temperature;humidity
46091;DHT22;31826;53.572;10.170;2023-04-24T00:02:23;12.00;99.90
46091;DHT22;31826;53.572;10.170;2023-04-24T00:04:49;12.00;99.90
46091;DHT22;31826;53.572;10.170;2023-04-24T00:07:15;11.90;99.90
46091;DHT22;31826;53.572;10.170;2023-04-24T00:09:45;11.90;99.90
46091;DHT22;31826;53.572;10.170;2023-04-24T00:12:10;11.90;99.90
46091;DHT22;31826;53.572;10.170;2023-04-24T00:14:36;11.90;99.90
46091;DHT22;31826;53.572;10.170;2023-04-24T00:17:02;11.90;99.90
46091;DHT22;31826;53.572;10.170;2023-04-24T00:19:28;11.90;99.90
46091;DHT22;31826;53.572;10.170;2023-04-24T00:21:54;11.90;99.90
46091;DHT22;31826;53.572;10.170;2023-04-24T00:24:20;11.80;99.90
46091;DHT22;31826;53.572;10.170;2023-04-24T00:26:46;11.80;99.90
46091;DHT22;31826;53.572;10.170;2023-04-24T00:29:12;11.80;99.90
46091;DHT22;31826;53.572;10.170;2023-04-24T00:31:37;11.80;99.90
46091;DHT22;31826;53.572;10.170;2023-04-24T00:34:04;11.70;99.90
46091;DHT22;31826;53.572;10.170;2023-04-24T00:36:30;11.70;99.90
46091;DHT22;31826;53.572;10.170;2023-04-24T00:38:56;11.70;99.90
46091;DHT22;31826;53.572;10.170;2023-04-24T00:41:22;11.70;99.90
46091;DHT22;31826;53.572;10.170;2023-04-24T00:43:50;11.70;99.90
46091;DHT22;31826;53.572;10.170;2023-04-24T00:46:16;11.70;99.90
46091;DHT22;31826;53.572;10.170;2023-04-24T00:48:43;11.70;99.90
46091;DHT22;31826;53.572;10.170;2023-04-24T00:51:09;11.60;99.90
46091;DHT22;31826;53.572;10.170;2023-04-24T00:53:35;11.60;99.90
46091;DHT22;31826;53.572;10.170;2023-04-24T00:56:02;11.60;99.90
46091;DHT22;31826;53.572;10.170;2023-04-24T00:58:28;11.60;99.90
46091;DHT22;31826;53.572;10.170;2023-04-24T01:00:54;11.60;99.90
46091;DHT22;31826;53.572;10.170;2023-04-24T01:03:25;11.60;99.90
46091;DHT22;31826;53.572;10.170;2023-04-24T01:05:52;11.60;99.90
46091;DHT22;31826;53.572;10.170;2023-04-24T01:08:21;11.60;99.90
46091;DHT22;31826;53.572;10.170;2023-04-24T01:10:53;11.60;99.90
46091;DHT22;31826;53.572;10.170;2023-04-24T01:13:19;11.70;99.90
46091;DHT22;31826;53.572;10.170;2023-04-24T01:15:46;11.60;99.90
46091;DHT22;31826;53.572;10.170;2023-04-24T01:18:12;11.60;99.90
46091;DHT22;31826;53.572;10.170;2023-04-24T01:20:42;11.60;99.90
46091;DHT22;31826;53.572;10.170;2023-04-24T01:23:09;11.60;99.90
46091;DHT22;31826;53.572;10.170;2023-04-24T01:25:36;11.60;99.90
46091;DHT22;31826;53.572;10.170;2023-04-24T01:28:03;11.60;99.90
46091;DHT22;31826;53.572;10.170;2023-04-24T01:30:29;11.60;99.90
46091;DHT22;31826;53.572;10.170;2023-04-24T01:32:55;11.60;99.90
46091;DHT22;31826;53.572;10.170;2023-04-24T01:35:21;11.60;99.90
46091;DHT22;31826;53.572;10.170;2023-04-24T01:37:47;11.60;99.90
46091;DHT22;31826;53.572;10.170;2023-04-24T01:40:12;11.50;99.90
46091;DHT22;31826;53.572;10.170;2023-04-24T01:42:38;11.50;99.90
46091;DHT22;31826;53.572;10.170;2023-04-24T01:45:06;11.50;99.90
46091;DHT22;31826;53.572;10.170;2023-04-24T01:47:33;11.50;99.90
46091;DHT22;31826;53.572;10.170;2023-04-24T01:49:59;11.50;99.90
46091;DHT22;31826;53.572;10.170;2023-04-24T01:52:25;11.50;99.90
46091;DHT22;31826;53.572;10.170;2023-04-24T01:54:52;11.60;99.90
46091;DHT22;31826;53.572;10.170;2023-04-24T01:57:18;11.50;99.90
46091;DHT22;31826;53.572;10.170;2023-04-24T01:59:44;11.50;99.90
46091;DHT22;31826;53.572;10.170;2023-04-24T02:02:09;11.50;99.90
46091;DHT22;31826;53.572;10.170;2023-04-24T02:04:35;11.50;99.90
46091;DHT22;31826;53.572;10.170;2023-04-24T02:07:00;11.50;99.90
46091;DHT22;31826;53.572;10.170;2023-04-24T02:09:26;11.50;99.90
46091;DHT22;31826;53.572;10.170;2023-04-24T02:11:52;11.50;99.90
46091;DHT22;31826;53.572;10.170;2023-04-24T02:14:17;11.40;99.90
46091;DHT22;31826;53.572;10.170;2023-04-24T02:16:43;11.40;99.90
46091;DHT22;31826;53.572;10.170;2023-04-24T02:19:09;11.30;99.90
46091;DHT22;31826;53.572;10.170;2023-04-24T02:21:35;11.20;99.90
46091;DHT22;31826;53.572;10.170;2023-04-24T02:24:01;11.20;99.90
46091;DHT22;31826;53.572;10.170;2023-04-24T02:26:26;11.10;99.90
46091;DHT22;31826;53.572;10.170;2023-04-24T02:28:52;11.00;99.90
46091;DHT22;31826;53.572;10.170;2023-04-24T02:31:18;11.00;99.90
46091;DHT22;31826;53.572;10.170;2023-04-24T02:33:43;10.90;99.90
46091;DHT22;31826;53.572;10.170;2023-04-24T02:36:09;10.90;99.90
46091;DHT22;31826;53.572;10.170;2023-04-24T02:38:35;11.00;99.90
46091;DHT22;31826;53.572;10.170;2023-04-24T02:41:00;11.00;99.90
46091;DHT22;31826;53.572;10.170;2023-04-24T02:43:27;11.00;99.90
46091;DHT22;31826;53.572;10.170;2023-04-24T02:45:53;10.90;99.90
46091;DHT22;31826;53.572;10.170;2023-04-24T02:48:19;11.00;99.90
46091;DHT22;31826;53.572;10.170;2023-04-24T02:50:46;10.90;99.90
46091;DHT22;31826;53.572;10.170;2023-04-24T02:53:11;10.90;99.90
46091;DHT22;31826;53.572;10.170;2023-04-24T02:55:37;10.80;99.90
46091;DHT22;31826;53.572;10.170;2023-04-24T02:58:03;10.80;99.90
46091;DHT22;31826;53.572;10.170;2023-04-24T03:00:28;10.70;99.90
46091;DHT22;31826;53.572;10.170;2023-04-24T03:02:55;10.80;99.90
46091;DHT22;31826;53.572;10.170;2023-04-24T03:05:21;10.70;99.90
46091;DHT22;31826;53.572;10.170;2023-04-24T03:07:46;10.70;99.90
46091;DHT22;31826;53.572;10.170;2023-04-24T03:10:12;10.70;99.90
46091;DHT22;31826;53.572;10.170;2023-04-24T03:12:38;10.70;99.90
46091;DHT22;31826;53.572;10.170;2023-04-24T03:15:04;10.70;99.90
46091;DHT22;31826;53.572;10.170;2023-04-24T03:17:30;10.70;99.90
46091;DHT22;31826;53.572;10.170;2023-04-24T03:19:55;10.70;99.90
46091;DHT22;31826;53.572;10.170;2023-04-24T03:22:21;10.70;99.90
46091;DHT22;31826;53.572;10.170;2023-04-24T03:24:47;10.70;99.90
46091;DHT22;31826;53.572;10.170;2023-04-24T03:27:12;10.70;99.90
46091;DHT22;31826;53.572;10.170;2023-04-24T03:29:38;10.70;99.90
46091;DHT22;31826;53.572;10.170;2023-04-24T03:32:04;10.60;99.90
46091;DHT22;31826;53.572;10.170;2023-04-24T03:34:29;10.70;99.90
46091;DHT22;31826;53.572;10.170;2023-04-24T03:36:55;10.60;99.90
46091;DHT22;31826;53.572;10.170;2023-04-24T03:39:21;10.60;99.90
46091;DHT22;31826;53.572;10.170;2023-04-24T03:41:46;10.60;99.90
46091;DHT22;31826;53.572;10.170;2023-04-24T03:44:12;10.50;99.90
46091;DHT22;31826;53.572;10.170;2023-04-24T03:46:37;10.50;99.90
46091;DHT22;31826;53.572;10.170;2023-04-24T03:49:03;10.40;99.90
46091;DHT22;31826;53.572;10.170;2023-04-24T03:51:29;10.40;99.90
46091;DHT22;31826;53.572;10.170;2023-04-24T03:53:56;10.40;99.90
46091;DHT22;31826;53.572;10.170;2023-04-24T03:56:22;10.40;99.90
46091;DHT22;31826;53.572;10.170;2023-04-24T03:58:48;10.40;99.90
46091;DHT22;31826;53.572;10.170;2023-04-24T04:01:13;10.40;99.90
46091;DHT22;31826;53.572;10.170;2023-04-24T04:03:41;10.50;99.90
46091;DHT22;31826;53.572;10.170;2023-04-24T04:06:07;10.40;99.90
46091;DHT22;31826;53.572;10.170;2023-04-24T04:08:32;10.40;99.90
46091;DHT22;31826;53.572;10.170;2023-04-24T04:10:58;10.30;99.90
46091;DHT22;31826;53.572;10.170;2023-04-24T04:13:24;10.30;99.90
46091;DHT22;31826;53.572;10.170;2023-04-24T04:15:49;10.30;99.90
46091;DHT22;31826;53.572;10.170;2023-04-24T04:18:15;10.30;99.90
46091;DHT22;31826;53.572;10.170;2023-04-24T04:20:41;10.30;99.90
46091;DHT22;31826;53.572;10.170;2023-04-24T04:23:06;10.30;99.90
46091;DHT22;31826;53.572;10.170;2023-04-24T04:25:32;10.30;99.90
46091;DHT22;31826;53.572;10.170;2023-04-24T04:27:58;10.20;99.90
46091;DHT22;31826;53.572;10.170;2023-04-24T04:30:25;10.20;99.90
46091;DHT22;31826;53.572;10.170;2023-04-24T04:32:51;10.10;99.90
46091;DHT22;31826;53.572;10.170;2023-04-24T04:35:17;10.10;99.90
46091;DHT22;31826;53.572;10.170;2023-04-24T04:37:43;10.20;99.90
46091;DHT22;31826;53.572;10.170;2023-04-24T04:40:08;10.20;99.90
46091;DHT22;31826;53.572;10.170;2023-04-24T04:42:37;10.20;99.90
46091;DHT22;31826;53.572;10.170;2023-04-24T04:45:09;10.30;99.90
46091;DHT22;31826;53.572;10.170;2023-04-24T04:47:35;10.30;99.90
46091;DHT22;31826;53.572;10.170;2023-04-24T04:50:01;10.30;99.90
46091;DHT22;31826;53.572;10.170;2023-04-24T04:52:26;10.30;99.90
46091;DHT22;31826;53.572;10.170;2023-04-24T04:54:52;10.30;99.90
46091;DHT22;31826;53.572;10.170;2023-04-24T04:57:18;10.30;99.90
46091;DHT22;31826;53.572;10.170;2023-04-24T04:59:44;10.30;99.90
46091;DHT22;31826;53.572;10.170;2023-04-24T05:02:10;10.40;99.90
46091;DHT22;31826;53.572;10.170;2023-04-24T05:04:36;10.40;99.90
46091;DHT22;31826;53.572;10.170;2023-04-24T05:07:01;10.50;99.90
46091;DHT22;31826;53.572;10.170;2023-04-24T05:09:28;10.50;99.90
46091;DHT22;31826;53.572;10.170;2023-04-24T05:11:55;10.50;99.90
46091;DHT22;31826;53.572;10.170;2023-04-24T05:14:21;10.60;99.90
46091;DHT22;31826;53.572;10.170;2023-04-24T05:16:47;10.60;99.90
46091;DHT22;31826;53.572;10.170;2023-04-24T05:19:13;10.70;99.90
46091;DHT22;31826;53.572;10.170;2023-04-24T05:21:39;10.80;99.90
46091;DHT22;31826;53.572;10.170;2023-04-24T05:24:06;10.80;99.90
46091;DHT22;31826;53.572;10.170;2023-04-24T05:26:32;10.80;99.90
46091;DHT22;31826;53.572;10.170;2023-04-24T05:28:58;10.80;99.90
46091;DHT22;31826;53.572;10.170;2023-04-24T05:31:23;10.90;99.90
46091;DHT22;31826;53.572;10.170;2023-04-24T05:33:49;10.90;99.90
46091;DHT22;31826;53.572;10.170;2023-04-24T05:36:15;11.00;99.90
46091;DHT22;31826;53.572;10.170;2023-04-24T05:38:41;10.90;99.90
46091;DHT22;31826;53.572;10.170;2023-04-24T05:41:06;11.00;99.90
46091;DHT22;31826;53.572;10.170;2023-04-24T05:43:32;11.10;99.90
46091;DHT22;31826;53.572;10.170;2023-04-24T05:45:57;11.10;99.90
46091;DHT22;31826;53.572;10.170;2023-04-24T05:48:23;11.10;99.90
46091;DHT22;31826;53.572;10.170;2023-04-24T05:50:49;11.20;99.90
46091;DHT22;31826;53.572;10.170;2023-04-24T05:53:15;11.30;99.90
46091;DHT22;31826;53.572;10.170;2023-04-24T05:55:41;11.40;99.90
46091;DHT22;31826;53.572;10.170;2023-04-24T05:58:06;11.40;99.90
46091;DHT22;31826;53.572;10.170;2023-04-24T06:00:32;11.40;99.90
46091;DHT22;31826;53.572;10.170;2023-04-24T06:03:00;11.60;99.90
46091;DHT22;31826;53.572;10.170;2023-04-24T06:05:26;11.60;99.90
46091;DHT22;31826;53.572;10.170;2023-04-24T06:07:52;11.80;99.90
46091;DHT22;31826;53.572;10.170;2023-04-24T06:10:17;11.80;99.90
46091;DHT22;31826;53.572;10.170;2023-04-24T06:12:43;11.70;99.90
46091;DHT22;31826;53.572;10.170;2023-04-24T06:15:09;11.80;99.90
46091;DHT22;31826;53.572;10.170;2023-04-24T06:17:35;11.90;99.90
46091;DHT22;31826;53.572;10.170;2023-04-24T06:20:01;12.00;99.90
46091;DHT22;31826;53.572;10.170;2023-04-24T06:22:29;12.00;99.90
46091;DHT22;31826;53.572;10.170;2023-04-24T06:24:55;12.10;99.90
46091;DHT22;31826;53.572;10.170;2023-04-24T06:27:20;12.10;99.90
46091;DHT22;31826;53.572;10.170;2023-04-24T06:29:46;12.10;99.90
46091;DHT22;31826;53.572;10.170;2023-04-24T06:32:18;12.00;99.90
46091;DHT22;31826;53.572;10.170;2023-04-24T06:34:43;12.00;99.90
46091;DHT22;31826;53.572;10.170;2023-04-24T06:37:09;12.10;99.90
46091;DHT22;31826;53.572;10.170;2023-04-24T06:39:35;12.20;99.90
46091;DHT22;31826;53.572;10.170;2023-04-24T06:42:00;12.20;99.90
46091;DHT22;31826;53.572;10.170;2023-04-24T06:44:26;12.40;99.90
46091;DHT22;31826;53.572;10.170;2023-04-24T06:46:52;12.50;99.90
46091;DHT22;31826;53.572;10.170;2023-04-24T06:49:17;12.60;99.90
46091;DHT22;31826;53.572;10.170;2023-04-24T06:51:43;12.70;99.90
46091;DHT22;31826;53.572;10.170;2023-04-24T06:54:09;12.70;99.90
46091;DHT22;31826;53.572;10.170;2023-04-24T06:56:35;12.70;99.90
46091;DHT22;31826;53.572;10.170;2023-04-24T06:59:01;12.80;99.90
46091;DHT22;31826;53.572;10.170;2023-04-24T07:01:26;13.00;99.90
46091;DHT22;31826;53.572;10.170;2023-04-24T07:03:52;13.10;99.90
46091;DHT22;31826;53.572;10.170;2023-04-24T07:06:18;13.10;99.90
46091;DHT22;31826;53.572;10.170;2023-04-24T07:08:46;13.10;99.90
46091;DHT22;31826;53.572;10.170;2023-04-24T07:11:12;13.10;99.90
46091;DHT22;31826;53.572;10.170;2023-04-24T07:13:38;13.10;99.90
46091;DHT22;31826;53.572;10.170;2023-04-24T07:16:07;13.00;99.90
46091;DHT22;31826;53.572;10.170;2023-04-24T07:18:33;13.10;99.90
46091;DHT22;31826;53.572;10.170;2023-04-24T07:20:59;13.10;99.90
46091;DHT22;31826;53.572;10.170;2023-04-24T07:23:25;13.20;99.90
46091;DHT22;31826;53.572;10.170;2023-04-24T07:25:50;13.00;99.90
46091;DHT22;31826;53.572;10.170;2023-04-24T07:28:16;13.00;99.90
46091;DHT22;31826;53.572;10.170;2023-04-24T07:30:43;13.10;99.90
46091;DHT22;31826;53.572;10.170;2023-04-24T07:33:09;13.20;99.90
46091;DHT22;31826;53.572;10.170;2023-04-24T07:35:36;13.10;99.90
46091;DHT22;31826;53.572;10.170;2023-04-24T07:38:02;13.20;99.90
46091;DHT22;31826;53.572;10.170;2023-04-24T07:40:28;13.40;99.90
46091;DHT22;31826;53.572;10.170;2023-04-24T07:42:53;13.60;99.90
46091;DHT22;31826;53.572;10.170;2023-04-24T07:45:19;14.00;99.90
46091;DHT22;31826;53.572;10.170;2023-04-24T07:47:45;14.00;99.90
46091;DHT22;31826;53.572;10.170;2023-04-24T07:50:12;13.90;99.90
46091;DHT22;31826;53.572;10.170;2023-04-24T07:52:38;13.70;99.90
46091;DHT22;31826;53.572;10.170;2023-04-24T07:55:04;13.90;99.90
46091;DHT22;31826;53.572;10.170;2023-04-24T07:57:30;13.90;99.90
46091;DHT22;31826;53.572;10.170;2023-04-24T07:59:56;14.00;99.90
46091;DHT22;31826;53.572;10.170;2023-04-24T08:02:22;13.80;99.90
46091;DHT22;31826;53.572;10.170;2023-04-24T08:04:52;13.80;99.90
46091;DHT22;31826;53.572;10.170;2023-04-24T08:07:19;13.80;99.90
46091;DHT22;31826;53.572;10.170;2023-04-24T08:09:45;13.90;99.90
46091;DHT22;31826;53.572;10.170;2023-04-24T08:12:10;14.00;99.90
46091;DHT22;31826;53.572;10.170;2023-04-24T08:14:36;14.10;99.90
46091;DHT22;31826;53.572;10.170;2023-04-24T08:17:02;13.80;99.90
46091;DHT22;31826;53.572;10.170;2023-04-24T08:19:28;13.80;99.90
46091;DHT22;31826;53.572;10.170;2023-04-24T08:21:54;13.70;99.90
46091;DHT22;31826;53.572;10.170;2023-04-24T08:24:20;13.70;99.90
46091;DHT22;31826;53.572;10.170;2023-04-24T08:26:46;13.70;99.90
46091;DHT22;31826;53.572;10.170;2023-04-24T08:29:12;13.80;99.90
46091;DHT22;31826;53.572;10.170;2023-04-24T08:31:37;13.60;99.90
46091;DHT22;31826;53.572;10.170;2023-04-24T08:34:03;13.30;99.90
46091;DHT22;31826;53.572;10.170;2023-04-24T08:36:29;13.20;99.90
46091;DHT22;31826;53.572;10.170;2023-04-24T08:38:55;13.20;99.90
46091;DHT22;31826;53.572;10.170;2023-04-24T08:41:21;13.00;99.90
46091;DHT22;31826;53.572;10.170;2023-04-24T08:43:50;12.90;99.90
46091;DHT22;31826;53.572;10.170;2023-04-24T08:46:16;12.80;99.90
46091;DHT22;31826;53.572;10.170;2023-04-24T08:48:44;12.80;99.90
46091;DHT22;31826;53.572;10.170;2023-04-24T08:51:10;12.90;99.90
46091;DHT22;31826;53.572;10.170;2023-04-24T08:53:36;13.20;99.90
46091;DHT22;31826;53.572;10.170;2023-04-24T08:56:03;13.50;99.90
46091;DHT22;31826;53.572;10.170;2023-04-24T08:58:29;13.70;99.90
46091;DHT22;31826;53.572;10.170;2023-04-24T09:00:57;13.80;99.90
46091;DHT22;31826;53.572;10.170;2023-04-24T09:03:23;13.50;99.90
46091;DHT22;31826;53.572;10.170;2023-04-24T09:05:50;13.40;99.90
46091;DHT22;31826;53.572;10.170;2023-04-24T09:08:19;13.50;99.90
46091;DHT22;31826;53.572;10.170;2023-04-24T09:10:47;13.60;99.90
46091;DHT22;31826;53.572;10.170;2023-04-24T09:13:13;13.50;99.90
46091;DHT22;31826;53.572;10.170;2023-04-24T09:15:40;13.70;99.90
46091;DHT22;31826;53.572;10.170;2023-04-24T09:18:06;13.80;99.90
46091;DHT22;31826;53.572;10.170;2023-04-24T09:20:32;13.70;99.90
46091;DHT22;31826;53.572;10.170;2023-04-24T09:22:58;13.60;99.90
46091;DHT22;31826;53.572;10.170;2023-04-24T09:25:34;13.40;99.90
46091;DHT22;31826;53.572;10.170;2023-04-24T09:28:02;13.30;99.90
46091;DHT22;31826;53.572;10.170;2023-04-24T09:30:28;13.40;99.90
46091;DHT22;31826;53.572;10.170;2023-04-24T09:33:13;13.20;99.90
46091;DHT22;31826;53.572;10.170;2023-04-24T09:35:41;12.90;99.90
46091;DHT22;31826;53.572;10.170;2023-04-24T09:38:08;12.80;99.90
46091;DHT22;31826;53.572;10.170;2023-04-24T09:40:35;13.00;99.90
46091;DHT22;31826;53.572;10.170;2023-04-24T09:43:02;13.00;99.90
46091;DHT22;31826;53.572;10.170;2023-04-24T09:45:38;13.10;99.90
46091;DHT22;31826;53.572;10.170;2023-04-24T09:48:04;13.20;99.90
46091;DHT22;31826;53.572;10.170;2023-04-24T09:50:32;13.30;99.90
46091;DHT22;31826;53.572;10.170;2023-04-24T09:53:07;13.30;99.90
46091;DHT22;31826;53.572;10.170;2023-04-24T09:55:40;13.20;99.90
46091;DHT22;31826;53.572;10.170;2023-04-24T09:58:10;13.30;99.90
46091;DHT22;31826;53.572;10.170;2023-04-24T10:00:36;13.40;99.90
46091;DHT22;31826;53.572;10.170;2023-04-24T10:03:03;13.50;99.90
46091;DHT22;31826;53.572;10.170;2023-04-24T10:05:31;13.60;99.90
46091;DHT22;31826;53.572;10.170;2023-04-24T10:08:12;13.80;99.90
46091;DHT22;31826;53.572;10.170;2023-04-24T10:10:45;13.90;99.90
46091;DHT22;31826;53.572;10.170;2023-04-24T10:13:12;14.10;99.90
46091;DHT22;31826;53.572;10.170;2023-04-24T10:15:40;14.00;99.90
46091;DHT22;31826;53.572;10.170;2023-04-24T10:18:06;14.20;99.90
46091;DHT22;31826;53.572;10.170;2023-04-24T10:20:34;14.70;99.90
46091;DHT22;31826;53.572;10.170;2023-04-24T10:23:00;14.70;99.90
46091;DHT22;31826;53.572;10.170;2023-04-24T10:25:28;14.40;99.90
46091;DHT22;31826;53.572;10.170;2023-04-24T10:27:55;14.30;99.90
46091;DHT22;31826;53.572;10.170;2023-04-24T10:30:29;14.10;99.90
46091;DHT22;31826;53.572;10.170;2023-04-24T10:32:56;14.00;99.90
46091;DHT22;31826;53.572;10.170;2023-04-24T10:35:22;13.80;99.90
46091;DHT22;31826;53.572;10.170;2023-04-24T10:37:56;13.70;99.90
46091;DHT22;31826;53.572;10.170;2023-04-24T10:40:40;13.50;99.90
46091;DHT22;31826;53.572;10.170;2023-04-24T10:43:07;13.30;99.90
46091;DHT22;31826;53.572;10.170;2023-04-24T10:45:37;13.30;99.90
46091;DHT22;31826;53.572;10.170;2023-04-24T10:48:04;13.30;99.90
46091;DHT22;31826;53.572;10.170;2023-04-24T10:50:48;13.30;99.90
46091;DHT22;31826;53.572;10.170;2023-04-24T10:53:28;13.40;99.90
46091;DHT22;31826;53.572;10.170;2023-04-24T10:58:42;13.30;99.90
46091;DHT22;31826;53.572;10.170;2023-04-24T11:01:24;13.10;99.90
46091;DHT22;31826;53.572;10.170;2023-04-24T11:03:55;13.20;99.90
46091;DHT22;31826;53.572;10.170;2023-04-24T11:06:29;13.30;99.90
46091;DHT22;31826;53.572;10.170;2023-04-24T11:09:03;13.50;99.90
46091;DHT22;31826;53.572;10.170;2023-04-24T11:11:30;13.80;99.90
46091;DHT22;31826;53.572;10.170;2023-04-24T11:19:08;13.90;99.90
46091;DHT22;31826;53.572;10.170;2023-04-24T11:21:40;13.60;99.90
46091;DHT22;31826;53.572;10.170;2023-04-24T11:26:55;13.80;99.90
46091;DHT22;31826;53.572;10.170;2023-04-24T11:29:22;14.50;99.90
46091;DHT22;31826;53.572;10.170;2023-04-24T11:31:49;15.10;99.00
46091;DHT22;31826;53.572;10.170;2023-04-24T11:34:17;15.40;98.40
46091;DHT22;31826;53.572;10.170;2023-04-24T11:36:47;15.50;97.80
46091;DHT22;31826;53.572;10.170;2023-04-24T11:39:13;15.50;97.70
46091;DHT22;31826;53.572;10.170;2023-04-24T11:41:40;14.80;98.00
46091;DHT22;31826;53.572;10.170;2023-04-24T11:44:08;14.50;98.50
46091;DHT22;31826;53.572;10.170;2023-04-24T11:46:34;14.40;99.20
46091;DHT22;31826;53.572;10.170;2023-04-24T11:48:59;14.40;98.80
46091;DHT22;31826;53.572;10.170;2023-04-24T11:51:26;14.10;98.90
46091;DHT22;31826;53.572;10.170;2023-04-24T11:53:55;14.10;99.40
46091;DHT22;31826;53.572;10.170;2023-04-24T11:56:24;14.20;99.90
46091;DHT22;31826;53.572;10.170;2023-04-24T11:58:53;14.40;99.70
46091;DHT22;31826;53.572;10.170;2023-04-24T12:01:20;14.60;99.60
46091;DHT22;31826;53.572;10.170;2023-04-24T12:03:50;14.60;98.20
46091;DHT22;31826;53.572;10.170;2023-04-24T12:06:16;14.20;98.60
46091;DHT22;31826;53.572;10.170;2023-04-24T12:08:46;14.10;99.10
46091;DHT22;31826;53.572;10.170;2023-04-24T12:11:15;14.30;98.80
46091;DHT22;31826;53.572;10.170;2023-04-24T12:13:41;14.40;98.40
46091;DHT22;31826;53.572;10.170;2023-04-24T12:16:07;14.30;97.60
46091;DHT22;31826;53.572;10.170;2023-04-24T12:18:32;14.50;98.10
46091;DHT22;31826;53.572;10.170;2023-04-24T12:21:18;14.60;98.40
46091;DHT22;31826;53.572;10.170;2023-04-24T12:23:45;14.80;97.80
46091;DHT22;31826;53.572;10.170;2023-04-24T12:26:20;14.70;96.80
46091;DHT22;31826;53.572;10.170;2023-04-24T12:28:48;14.70;97.60
46091;DHT22;31826;53.572;10.170;2023-04-24T12:31:16;14.80;97.60
46091;DHT22;31826;53.572;10.170;2023-04-24T12:33:43;14.90;97.10
46091;DHT22;31826;53.572;10.170;2023-04-24T12:36:12;14.80;96.70
46091;DHT22;31826;53.572;10.170;2023-04-24T12:38:38;14.60;96.50
46091;DHT22;31826;53.572;10.170;2023-04-24T12:41:11;14.50;96.80
46091;DHT22;31826;53.572;10.170;2023-04-24T12:43:37;14.50;97.00
46091;DHT22;31826;53.572;10.170;2023-04-24T12:46:04;14.50;97.10
46091;DHT22;31826;53.572;10.170;2023-04-24T12:48:30;14.50;97.40
46091;DHT22;31826;53.572;10.170;2023-04-24T12:50:59;14.40;97.60
46091;DHT22;31826;53.572;10.170;2023-04-24T12:53:28;14.30;97.80
46091;DHT22;31826;53.572;10.170;2023-04-24T12:55:57;14.00;98.20
46091;DHT22;31826;53.572;10.170;2023-04-24T12:58:22;13.80;98.40
46091;DHT22;31826;53.572;10.170;2023-04-24T13:00:48;13.70;99.00
46091;DHT22;31826;53.572;10.170;2023-04-24T13:03:14;13.60;99.30
46091;DHT22;31826;53.572;10.170;2023-04-24T13:05:41;13.30;99.10
46091;DHT22;31826;53.572;10.170;2023-04-24T13:08:07;13.30;99.60
46091;DHT22;31826;53.572;10.170;2023-04-24T13:10:32;13.30;99.50
46091;DHT22;31826;53.572;10.170;2023-04-24T13:12:58;13.40;99.80
46091;DHT22;31826;53.572;10.170;2023-04-24T13:15:24;13.50;99.50
46091;DHT22;31826;53.572;10.170;2023-04-24T13:17:50;13.40;99.30
46091;DHT22;31826;53.572;10.170;2023-04-24T13:20:16;13.30;99.70
46091;DHT22;31826;53.572;10.170;2023-04-24T13:22:42;13.30;99.90
46091;DHT22;31826;53.572;10.170;2023-04-24T13:25:08;13.20;99.90
46091;DHT22;31826;53.572;10.170;2023-04-24T13:27:34;13.00;99.90
46091;DHT22;31826;53.572;10.170;2023-04-24T13:30:00;13.00;99.90
46091;DHT22;31826;53.572;10.170;2023-04-24T13:32:26;13.00;99.90
46091;DHT22;31826;53.572;10.170;2023-04-24T13:34:53;12.90;99.90
46091;DHT22;31826;53.572;10.170;2023-04-24T13:37:18;12.90;99.90
46091;DHT22;31826;53.572;10.170;2023-04-24T13:39:44;12.70;99.90
46091;DHT22;31826;53.572;10.170;2023-04-24T13:42:10;12.50;99.90
46091;DHT22;31826;53.572;10.170;2023-04-24T13:44:36;12.40;99.90
46091;DHT22;31826;53.572;10.170;2023-04-24T13:47:01;12.40;99.90
46091;DHT22;31826;53.572;10.170;2023-04-24T13:49:28;12.30;99.90
46091;DHT22;31826;53.572;10.170;2023-04-24T13:51:55;12.30;99.90
46091;DHT22;31826;53.572;10.170;2023-04-24T13:54:20;12.30;99.90
46091;DHT22;31826;53.572;10.170;2023-04-24T13:56:47;12.20;99.90
46091;DHT22;31826;53.572;10.170;2023-04-24T13:59:13;12.30;99.90
46091;DHT22;31826;53.572;10.170;2023-04-24T14:01:38;12.30;99.90
46091;DHT22;31826;53.572;10.170;2023-04-24T14:04:04;12.30;99.90
46091;DHT22;31826;53.572;10.170;2023-04-24T14:06:30;12.40;99.90
46091;DHT22;31826;53.572;10.170;2023-04-24T14:08:56;12.30;99.90
46091;DHT22;31826;53.572;10.170;2023-04-24T14:11:22;12.40;99.90
46091;DHT22;31826;53.572;10.170;2023-04-24T14:13:48;12.30;99.90
46091;DHT22;31826;53.572;10.170;2023-04-24T14:16:14;12.30;99.90
46091;DHT22;31826;53.572;10.170;2023-04-24T14:18:40;12.10;99.90
46091;DHT22;31826;53.572;10.170;2023-04-24T14:21:06;12.10;99.90
46091;DHT22;31826;53.572;10.170;2023-04-24T14:23:32;12.00;99.90
46091;DHT22;31826;53.572;10.170;2023-04-24T14:25:58;12.00;99.90
46091;DHT22;31826;53.572;10.170;2023-04-24T14:28:24;12.10;99.90
46091;DHT22;31826;53.572;10.170;2023-04-24T14:30:51;12.10;99.90
46091;DHT22;31826;53.572;10.170;2023-04-24T14:33:17;12.20;99.90
46091;DHT22;31826;53.572;10.170;2023-04-24T14:35:43;12.30;99.90
46091;DHT22;31826;53.572;10.170;2023-04-24T14:38:09;12.30;99.90
46091;DHT22;31826;53.572;10.170;2023-04-24T14:40:35;12.30;99.90
46091;DHT22;31826;53.572;10.170;2023-04-24T14:43:01;12.50;99.90
46091;DHT22;31826;53.572;10.170;2023-04-24T14:45:27;12.50;99.90
46091;DHT22;31826;53.572;10.170;2023-04-24T14:47:53;12.60;99.90
46091;DHT22;31826;53.572;10.170;2023-04-24T14:50:19;12.60;99.90
46091;DHT22;31826;53.572;10.170;2023-04-24T14:52:45;12.70;99.90
46091;DHT22;31826;53.572;10.170;2023-04-24T14:55:12;12.70;99.90
46091;DHT22;31826;53.572;10.170;2023-04-24T14:57:38;12.70;99.90
46091;DHT22;31826;53.572;10.170;2023-04-24T15:00:05;12.60;99.90
46091;DHT22;31826;53.572;10.170;2023-04-24T15:02:33;12.50;99.90
46091;DHT22;31826;53.572;10.170;2023-04-24T15:04:59;12.40;99.90
46091;DHT22;31826;53.572;10.170;2023-04-24T15:07:25;12.20;99.90
46091;DHT22;31826;53.572;10.170;2023-04-24T15:09:50;12.10;99.90
46091;DHT22;31826;53.572;10.170;2023-04-24T15:12:16;12.10;99.90
46091;DHT22;31826;53.572;10.170;2023-04-24T15:14:42;12.10;99.90
46091;DHT22;31826;53.572;10.170;2023-04-24T15:17:08;12.10;99.90
46091;DHT22;31826;53.572;10.170;2023-04-24T15:19:33;11.70;99.90
46091;DHT22;31826;53.572;10.170;2023-04-24T15:21:59;11.60;99.90
46091;DHT22;31826;53.572;10.170;2023-04-24T15:24:25;11.50;99.90